Time;durP1;ratioP1;P1;durP2;ratioP2;P2;SDS_P1;SDS_P2;PMS_P1;PMS_P2;Temp;Humidity;BMP_temperature;BMP_pressure;BME280_temperature;BME280_humidity;BME280_pressure;Samples;Min_cycle;Max_cycle;Signal;HPM_P1;HPM_P2
2021/03/13 00:00:48;;;;;;;16.43;3.97;;;7.50;80.60;;;;;;5031675;28;20037;-77
2021/03/13 00:03:14;;;;;;;15.37;4.83;;;7.50;80.50;;;;;;4996758;28;20036;-76
2021/03/13 00:05:42;;;;;;;18.50;7.07;;;7.60;80.80;;;;;;5014863;28;20489;-76
2021/03/13 00:08:09;;;;;;;13.83;4.77;;;7.60;80.80;;;;;;5032578;28;20026;-80
2021/03/13 00:10:35;;;;;;;15.00;4.00;;;7.60;80.80;;;;;;5014541;28;20038;-77
2021/03/13 00:13:02;;;;;;;13.37;4.83;;;7.60;80.80;;;;;;5032348;28;20025;-76
2021/03/13 00:15:29;;;;;;;9.77;3.90;;;7.60;80.90;;;;;;5030185;28;20093;-74
2021/03/13 00:17:57;;;;;;;17.73;6.33;;;7.60;81.00;;;;;;5032631;28;20030;-75
2021/03/13 00:20:25;;;;;;;14.03;5.07;;;7.60;81.00;;;;;;5012847;28;20025;-76
2021/03/13 00:22:52;;;;;;;11.93;4.27;;;7.60;81.10;;;;;;5029301;28;20049;-75
2021/03/13 00:25:18;;;;;;;11.00;3.53;;;7.60;81.10;;;;;;5031276;28;20041;-77
2021/03/13 00:27:47;;;;;;;11.20;2.50;;;7.70;81.10;;;;;;5014512;28;20029;-77
2021/03/13 00:30:16;;;;;;;10.30;4.23;;;7.70;81.10;;;;;;5013598;28;20029;-77
2021/03/13 00:32:42;;;;;;;15.30;4.10;;;7.60;81.30;;;;;;5032447;28;20029;-76
2021/03/13 00:35:09;;;;;;;11.50;3.60;;;7.70;81.30;;;;;;5032469;28;20037;-78
2021/03/13 00:37:34;;;;;;;9.90;2.73;;;7.70;81.90;;;;;;5013774;28;20474;-76
2021/03/13 00:40:02;;;;;;;8.63;2.67;;;7.70;81.20;;;;;;5013767;28;20045;-76
2021/03/13 00:42:28;;;;;;;10.10;3.13;;;7.70;81.30;;;;;;5030738;28;20060;-78
2021/03/13 00:44:53;;;;;;;6.77;2.10;;;7.60;81.70;;;;;;4997361;28;20029;-76
2021/03/13 00:47:19;;;;;;;11.97;4.17;;;7.70;82.20;;;;;;5031251;28;20445;-76
2021/03/13 00:49:45;;;;;;;10.23;2.53;;;7.60;82.50;;;;;;5014086;28;20048;-80
2021/03/13 00:52:10;;;;;;;11.20;3.20;;;7.60;82.80;;;;;;5013946;28;20080;-80
2021/03/13 00:54:36;;;;;;;8.40;2.60;;;7.60;83.30;;;;;;5013604;28;20613;-76
2021/03/13 00:57:02;;;;;;;13.17;2.93;;;7.60;83.50;;;;;;5031367;28;20551;-76
2021/03/13 00:59:28;;;;;;;11.20;2.50;;;7.60;83.70;;;;;;4997262;28;20801;-76
2021/03/13 01:01:53;;;;;;;11.07;2.50;;;7.50;83.90;;;;;;4998426;28;20044;-77
2021/03/13 01:04:19;;;;;;;15.93;2.40;;;7.50;84.20;;;;;;5001683;28;20038;-77
2021/03/13 01:06:45;;;;;;;9.93;3.17;;;7.50;84.60;;;;;;5016746;28;20425;-76
2021/03/13 01:09:11;;;;;;;10.60;4.03;;;7.50;84.70;;;;;;5033712;28;20056;-85
2021/03/13 01:11:36;;;;;;;8.67;2.60;;;7.40;85.00;;;;;;5014603;28;20117;-77
2021/03/13 01:14:02;;;;;;;12.67;3.13;;;7.40;85.20;;;;;;4998672;28;20407;-78
2021/03/13 01:16:28;;;;;;;10.27;3.13;;;7.40;85.50;;;;;;5014873;28;20037;-76
2021/03/13 01:18:53;;;;;;;8.60;2.57;;;7.30;85.80;;;;;;5018280;28;20056;-79
2021/03/13 01:21:19;;;;;;;10.53;2.07;;;7.30;86.00;;;;;;5033332;28;20067;-74
2021/03/13 01:23:44;;;;;;;9.97;2.80;;;7.30;86.20;;;;;;5033263;28;20049;-75
2021/03/13 01:26:10;;;;;;;7.47;3.23;;;7.30;86.50;;;;;;5034065;28;20029;-76
2021/03/13 01:28:36;;;;;;;11.10;4.23;;;7.30;86.80;;;;;;5015724;28;20055;-73
2021/03/13 01:31:01;;;;;;;12.30;6.13;;;7.30;87.00;;;;;;5014707;28;20064;-73
2021/03/13 01:33:28;;;;;;;13.40;2.90;;;7.20;87.20;;;;;;5032609;28;20042;-73
2021/03/13 01:35:55;;;;;;;7.33;3.20;;;7.20;87.30;;;;;;5035033;28;20034;-76
2021/03/13 01:38:20;;;;;;;11.80;4.90;;;7.20;87.60;;;;;;5037347;28;20025;-75
2021/03/13 01:40:46;;;;;;;9.20;3.50;;;7.20;87.90;;;;;;5021926;28;20057;-75
2021/03/13 01:43:12;;;;;;;10.67;2.63;;;7.20;87.90;;;;;;5038177;28;20116;-76
2021/03/13 01:45:38;;;;;;;14.53;3.50;;;7.20;88.10;;;;;;5020258;28;20039;-75
2021/03/13 01:48:04;;;;;;;9.27;3.07;;;7.10;88.30;;;;;;5034825;28;20556;-80
2021/03/13 01:50:31;;;;;;;8.63;3.00;;;7.10;88.50;;;;;;5044845;28;20032;-77
2021/03/13 01:52:56;;;;;;;11.30;3.70;;;7.10;88.70;;;;;;5010725;28;20517;-78
2021/03/13 01:55:22;;;;;;;8.60;3.67;;;7.00;88.90;;;;;;5043314;28;20117;-77
2021/03/13 01:57:48;;;;;;;11.50;3.77;;;7.00;89.10;;;;;;5044831;28;20033;-76
2021/03/13 02:00:17;;;;;;;11.97;4.93;;;7.00;89.30;;;;;;5014100;28;20056;-78
2021/03/13 02:02:43;;;;;;;9.17;3.67;;;7.00;89.50;;;;;;5043625;28;20013;-76
2021/03/13 02:05:17;;;;;;;11.30;4.83;;;7.00;89.60;;;;;;5028906;28;20401;-76
2021/03/13 02:07:51;;;;;;;8.13;4.60;;;7.00;90.00;;;;;;5043659;28;20032;-76
2021/03/13 02:10:49;;;;;;;9.90;4.07;;;7.00;89.70;;;;;;5022363;28;20107;-82
2021/03/13 02:13:33;;;;;;;11.30;4.37;;;7.10;89.80;;;;;;5017681;28;20418;-76
2021/03/13 02:16:13;;;;;;;8.83;4.00;;;7.10;89.70;;;;;;5032420;28;20116;-77
2021/03/13 02:19:08;;;;;;;10.87;4.63;;;7.10;89.60;;;;;;5031812;28;20101;-77
2021/03/13 02:21:43;;;;;;;9.90;4.07;;;7.10;89.60;;;;;;5025729;28;20029;-76
2021/03/13 02:24:27;;;;;;;9.67;4.40;;;7.00;89.70;;;;;;5033684;28;20026;-78
2021/03/13 02:27:10;;;;;;;10.47;4.70;;;7.10;90.10;;;;;;5031577;28;20041;-77
2021/03/13 02:29:39;;;;;;;11.65;3.97;;;7.10;89.80;;;;;;5032468;28;20013;-77
2021/03/13 02:32:26;;;;;;;11.27;4.33;;;7.10;89.70;;;;;;5032346;28;20029;-77
2021/03/13 02:34:58;;;;;;;10.10;5.07;;;7.10;89.90;;;;;;5032167;28;20029;-79
2021/03/13 02:37:28;;;;;;;11.32;5.15;;;7.00;90.00;;;;;;5027826;28;20025;-78
2021/03/13 02:39:55;;;;;;;12.47;4.37;;;7.10;90.10;;;;;;5014393;28;20042;-77
2021/03/13 02:42:23;;;;;;;8.90;4.17;;;7.10;90.20;;;;;;5030798;28;20159;-80
2021/03/13 02:44:50;;;;;;;8.90;4.40;;;7.00;90.20;;;;;;5031397;28;20018;-77
2021/03/13 02:47:17;;;;;;;12.47;4.40;;;7.00;90.20;;;;;;5031245;28;20038;-77
2021/03/13 02:49:45;;;;;;;11.83;4.23;;;7.00;90.20;;;;;;4996356;28;20026;-79
2021/03/13 02:52:12;;;;;;;9.83;4.07;;;7.00;90.30;;;;;;5028791;28;20172;-77
2021/03/13 02:54:43;;;;;;;7.80;3.37;;;7.00;90.30;;;;;;5030492;28;20033;-77
2021/03/13 02:57:13;;;;;;;8.90;4.33;;;7.00;90.30;;;;;;5013942;28;20017;-77
2021/03/13 02:59:40;;;;;;;9.33;3.57;;;7.00;90.40;;;;;;5012936;28;20458;-76
2021/03/13 03:02:08;;;;;;;9.30;3.50;;;7.00;90.40;;;;;;4995703;28;20146;-77
2021/03/13 03:04:36;;;;;;;9.40;3.43;;;7.10;90.40;;;;;;4995171;28;20034;-77
2021/03/13 03:07:03;;;;;;;8.03;3.03;;;7.00;90.40;;;;;;5032488;28;20075;-76
2021/03/13 03:09:29;;;;;;;8.43;3.17;;;7.00;90.40;;;;;;5032761;28;20017;-76
2021/03/13 03:11:56;;;;;;;11.20;3.30;;;7.00;90.50;;;;;;5033025;28;20107;-78
2021/03/13 03:14:23;;;;;;;7.50;2.73;;;7.00;90.50;;;;;;5030602;28;20018;-80
2021/03/13 03:16:53;;;;;;;8.43;3.03;;;7.10;90.60;;;;;;5015381;28;20117;-76
2021/03/13 03:19:20;;;;;;;5.57;2.40;;;7.10;90.60;;;;;;5033879;28;20116;-78
2021/03/13 03:21:46;;;;;;;9.43;2.97;;;7.10;90.50;;;;;;5032470;28;20039;-77
2021/03/13 03:24:12;;;;;;;9.33;2.87;;;7.10;90.50;;;;;;5015672;28;20025;-77
2021/03/13 03:26:39;;;;;;;6.03;2.23;;;7.20;90.50;;;;;;5014635;28;20030;-77
2021/03/13 03:29:04;;;;;;;6.43;2.23;;;7.20;90.50;;;;;;5015987;28;20386;-76
2021/03/13 03:31:30;;;;;;;9.90;2.70;;;7.20;90.40;;;;;;5013397;28;20049;-77
2021/03/13 03:33:57;;;;;;;7.10;2.33;;;7.20;90.40;;;;;;5015443;28;20033;-75
2021/03/13 03:36:23;;;;;;;7.17;2.50;;;7.30;90.50;;;;;;5032753;28;20029;-78
2021/03/13 03:38:49;;;;;;;11.57;2.80;;;7.30;90.50;;;;;;4998868;28;20075;-75
2021/03/13 03:41:16;;;;;;;8.77;2.70;;;7.30;90.50;;;;;;5015009;28;20489;-75
2021/03/13 03:43:48;;;;;;;9.37;2.60;;;7.30;90.60;;;;;;5012511;28;20022;-76
2021/03/13 03:46:15;;;;;;;6.32;2.33;;;7.40;90.50;;;;;;5033293;28;20033;-76
2021/03/13 03:48:41;;;;;;;6.33;1.90;;;7.30;90.50;;;;;;5032371;28;20028;-77
2021/03/13 03:51:13;;;;;;;6.70;2.33;;;7.30;90.50;;;;;;5029100;28;20088;-76
2021/03/13 03:53:50;;;;;;;5.30;2.40;;;7.30;90.50;;;;;;5014831;28;20374;-77
2021/03/13 03:56:19;;;;;;;9.77;3.00;;;7.30;90.50;;;;;;5032331;28;20155;-75
2021/03/13 03:58:47;;;;;;;9.57;2.63;;;7.30;90.60;;;;;;5013693;28;20276;-75
2021/03/13 04:01:14;;;;;;;7.10;1.90;;;7.40;90.70;;;;;;5032673;28;20040;-75
2021/03/13 04:03:53;;;;;;;9.70;2.17;;;7.30;90.70;;;;;;5032146;28;20374;-74
2021/03/13 04:06:21;;;;;;;9.40;2.47;;;7.40;90.70;;;;;;5028999;28;20029;-74
2021/03/13 04:08:49;;;;;;;9.63;1.83;;;7.40;90.70;;;;;;5014260;28;20013;-74
2021/03/13 04:11:19;;;;;;;7.97;1.90;;;7.40;90.70;;;;;;5032379;28;20049;-74
2021/03/13 04:13:48;;;;;;;7.17;1.20;;;7.40;90.70;;;;;;5014374;28;20021;-74
2021/03/13 04:16:15;;;;;;;8.17;1.97;;;7.40;90.70;;;;;;5032230;28;20107;-74
2021/03/13 04:18:41;;;;;;;7.87;1.30;;;7.40;90.60;;;;;;5029347;28;20029;-74
2021/03/13 04:21:07;;;;;;;5.97;1.10;;;7.40;90.60;;;;;;5032170;28;20048;-74
2021/03/13 04:23:37;;;;;;;7.53;1.40;;;7.40;90.60;;;;;;5013119;28;20116;-73
2021/03/13 04:26:04;;;;;;;6.17;1.03;;;7.40;90.70;;;;;;5031498;28;20025;-76
2021/03/13 04:28:30;;;;;;;7.17;1.10;;;7.40;90.70;;;;;;5031585;28;20022;-78
2021/03/13 04:30:56;;;;;;;10.80;1.27;;;7.50;90.70;;;;;;5031222;28;20040;-74
2021/03/13 04:33:23;;;;;;;10.23;1.57;;;7.50;90.60;;;;;;5014775;28;20030;-74
2021/03/13 04:35:51;;;;;;;6.60;1.40;;;7.50;90.60;;;;;;5012884;28;20202;-77
2021/03/13 04:38:18;;;;;;;8.03;1.27;;;7.50;90.60;;;;;;5032037;28;20505;-75
2021/03/13 04:40:46;;;;;;;9.10;1.40;;;7.50;90.60;;;;;;5031196;28;20425;-75
2021/03/13 04:43:13;;;;;;;8.20;1.30;;;7.50;90.60;;;;;;5031490;28;20060;-75
2021/03/13 04:45:41;;;;;;;10.23;0.90;;;7.50;90.60;;;;;;5012654;28;20033;-74
2021/03/13 04:48:07;;;;;;;7.27;0.97;;;7.50;90.60;;;;;;5031495;28;20037;-74
2021/03/13 04:50:32;;;;;;;8.60;1.10;;;7.50;90.60;;;;;;4996858;28;20069;-79
2021/03/13 04:52:58;;;;;;;10.23;1.07;;;7.50;90.60;;;;;;5013972;28;20076;-75
2021/03/13 04:55:24;;;;;;;8.63;1.10;;;7.60;90.60;;;;;;5013349;28;20033;-75
2021/03/13 04:57:49;;;;;;;8.37;0.83;;;7.60;90.50;;;;;;5030921;28;20033;-76
2021/03/13 05:00:17;;;;;;;8.87;0.90;;;7.60;90.50;;;;;;5013867;28;20032;-77
2021/03/13 05:02:43;;;;;;;5.97;0.80;;;7.60;90.50;;;;;;5012420;28;20487;-76
2021/03/13 05:05:09;;;;;;;7.00;0.80;;;7.70;90.30;;;;;;4996717;28;20048;-75
2021/03/13 05:07:35;;;;;;;7.40;0.93;;;7.70;90.00;;;;;;5012520;28;20025;-79
2021/03/13 05:10:03;;;;;;;6.50;0.60;;;7.80;90.00;;;;;;5013606;28;20072;-74
2021/03/13 05:12:29;;;;;;;5.50;0.80;;;7.80;90.10;;;;;;5013010;28;20077;-74
2021/03/13 05:14:54;;;;;;;6.13;0.60;;;7.80;90.20;;;;;;5030050;28;20057;-75
2021/03/13 05:17:20;;;;;;;6.43;0.80;;;7.80;90.20;;;;;;4997011;28;20033;-75
2021/03/13 05:19:46;;;;;;;6.00;0.60;;;7.80;90.20;;;;;;5030078;28;20025;-75
2021/03/13 05:22:11;;;;;;;5.70;0.90;;;7.80;90.30;;;;;;5012957;28;20060;-75
2021/03/13 05:24:37;;;;;;;7.50;0.70;;;7.80;90.30;;;;;;4995646;28;20068;-76
2021/03/13 05:27:03;;;;;;;7.63;0.60;;;7.90;90.30;;;;;;5030980;28;20045;-76
2021/03/13 05:29:29;;;;;;;5.43;0.80;;;7.90;90.20;;;;;;4995231;28;20103;-74
2021/03/13 05:31:54;;;;;;;8.13;1.10;;;7.90;90.20;;;;;;5029725;28;20037;-73
2021/03/13 05:34:20;;;;;;;5.77;0.80;;;7.80;90.20;;;;;;5030744;28;20501;-74
2021/03/13 05:36:46;;;;;;;6.90;0.73;;;7.90;90.20;;;;;;4995984;28;20037;-74
2021/03/13 05:39:11;;;;;;;5.40;0.80;;;7.90;90.20;;;;;;4993728;28;20454;-73
2021/03/13 05:41:38;;;;;;;5.33;0.60;;;7.90;90.20;;;;;;4995395;28;20157;-78
2021/03/13 05:44:07;;;;;;;6.10;0.73;;;7.90;90.10;;;;;;5030919;28;20037;-76
2021/03/13 05:46:35;;;;;;;6.90;0.80;;;8.00;90.00;;;;;;5012451;28;20030;-75
2021/03/13 05:49:08;;;;;;;5.03;0.57;;;8.00;90.00;;;;;;5030193;28;20087;-75
2021/03/13 05:51:35;;;;;;;5.35;0.60;;;8.00;90.00;;;;;;5030791;28;20080;-74
2021/03/13 05:54:06;;;;;;;8.90;0.70;;;8.00;89.90;;;;;;5012379;28;20470;-75
2021/03/13 05:56:31;;;;;;;6.57;0.60;;;8.00;89.80;;;;;;5031016;28;20501;-76
2021/03/13 05:58:58;;;;;;;5.30;0.80;;;8.00;90.00;;;;;;4995364;28;20044;-76
2021/03/13 06:01:26;;;;;;;7.57;1.10;;;8.10;89.80;;;;;;5012345;28;20551;-75
2021/03/13 06:03:53;;;;;;;6.17;0.50;;;8.10;89.60;;;;;;5012952;28;20029;-75
2021/03/13 06:06:20;;;;;;;4.90;0.50;;;8.10;89.60;;;;;;5013327;28;20029;-74
2021/03/13 06:08:47;;;;;;;4.73;0.50;;;8.10;89.60;;;;;;5030411;28;20117;-78
2021/03/13 06:11:13;;;;;;;3.87;0.40;;;8.10;89.60;;;;;;5012675;28;20041;-74
2021/03/13 06:13:38;;;;;;;5.70;0.40;;;8.20;89.50;;;;;;5012809;28;20037;-80
2021/03/13 06:16:04;;;;;;;4.10;0.50;;;8.20;89.40;;;;;;5030851;28;20071;-76
2021/03/13 06:18:48;;;;;;;4.47;0.40;;;8.20;89.00;;;;;;5012899;28;20055;-75
2021/03/13 06:21:24;;;;;;;4.37;0.50;;;8.20;88.80;;;;;;5011654;28;20091;-77
2021/03/13 06:24:00;;;;;;;5.60;0.40;;;8.20;88.90;;;;;;5030920;28;20140;-75
2021/03/13 06:26:27;;;;;;;2.63;0.40;;;8.20;88.70;;;;;;5031041;28;20017;-76
2021/03/13 06:28:54;;;;;;;3.97;0.30;;;8.20;88.60;;;;;;4996348;28;20049;-76
2021/03/13 06:31:25;;;;;;;4.77;0.50;;;8.30;88.60;;;;;;5030593;28;20065;-75
2021/03/13 06:33:51;;;;;;;7.37;0.70;;;8.30;88.60;;;;;;5011847;28;20029;-75
2021/03/13 06:36:22;;;;;;;4.83;0.50;;;8.30;88.50;;;;;;5012362;28;20527;-75
2021/03/13 06:38:48;;;;;;;3.67;0.30;;;8.20;88.80;;;;;;5027186;28;20044;-75
2021/03/13 06:41:22;;;;;;;5.23;0.30;;;8.20;89.30;;;;;;5030271;28;20482;-76
2021/03/13 06:43:51;;;;;;;7.13;0.40;;;8.10;89.90;;;;;;5034584;28;20042;-77
2021/03/13 06:46:21;;;;;;;3.20;0.20;;;8.10;90.10;;;;;;5034502;28;20164;-76
2021/03/13 06:48:51;;;;;;;3.53;0.30;;;7.60;87.90;;;;;;5033155;28;20120;-76
2021/03/13 06:51:28;;;;;;;1.83;0.30;;;7.20;88.50;;;;;;5030974;28;20112;-76
2021/03/13 06:54:15;;;;;;;1.33;0.20;;;7.00;89.70;;;;;;5015507;28;20033;-75
2021/03/13 06:56:53;;;;;;;2.47;0.20;;;7.10;89.50;;;;;;5030685;28;20036;-80
2021/03/13 06:59:27;;;;;;;2.10;0.30;;;7.20;88.40;;;;;;5033473;28;20152;-78
2021/03/13 07:02:07;;;;;;;1.43;0.17;;;7.30;88.30;;;;;;5017008;28;20466;-75
2021/03/13 07:04:39;;;;;;;1.93;0.20;;;7.40;87.60;;;;;;5034418;28;20031;-75
2021/03/13 07:07:06;;;;;;;3.13;0.10;;;7.30;87.00;;;;;;5033964;28;20068;-78
2021/03/13 07:09:48;;;;;;;1.03;0.20;;;7.30;86.90;;;;;;5034790;28;20021;-78
2021/03/13 07:12:41;;;;;;;2.47;0.20;;;7.30;86.70;;;;;;5008143;28;20046;-77
2021/03/13 07:15:25;;;;;;;2.23;0.30;;;7.20;86.60;;;;;;5012365;28;20315;-75
2021/03/13 07:17:53;;;;;;;2.23;0.20;;;7.20;86.80;;;;;;5010952;28;20120;-76
2021/03/13 07:20:25;;;;;;;2.13;0.20;;;7.20;87.10;;;;;;5010847;28;20101;-75
2021/03/13 07:22:53;;;;;;;3.60;0.20;;;7.20;87.10;;;;;;5023373;28;20025;-75
2021/03/13 07:25:21;;;;;;;3.53;0.20;;;7.20;86.80;;;;;;5011566;28;20113;-77
2021/03/13 07:27:47;;;;;;;1.40;0.10;;;7.20;86.90;;;;;;5012371;28;20061;-78
2021/03/13 07:30:16;;;;;;;1.60;0.27;;;7.20;86.80;;;;;;4993814;28;20113;-77
2021/03/13 07:32:48;;;;;;;2.00;0.20;;;7.20;86.60;;;;;;5011963;28;20048;-76
2021/03/13 07:35:15;;;;;;;4.43;0.30;;;7.20;86.50;;;;;;5009487;28;20068;-76
2021/03/13 07:37:41;;;;;;;3.73;0.30;;;7.30;86.30;;;;;;5010173;28;20030;-76
2021/03/13 07:40:16;;;;;;;3.83;0.40;;;7.40;86.00;;;;;;5012811;28;20030;-77
2021/03/13 07:42:46;;;;;;;1.37;0.23;;;7.40;85.80;;;;;;5013247;28;20026;-75
2021/03/13 07:45:12;;;;;;;3.77;0.53;;;7.50;85.10;;;;;;5011079;28;20034;-75
2021/03/13 07:47:40;;;;;;;2.43;0.80;;;7.50;84.70;;;;;;4993184;28;20412;-75
2021/03/13 07:50:14;;;;;;;2.57;0.63;;;7.60;84.70;;;;;;5013130;28;20057;-76
2021/03/13 07:52:42;;;;;;;3.27;1.00;;;7.70;84.40;;;;;;5007404;28;20054;-75
2021/03/13 07:55:10;;;;;;;3.47;1.13;;;7.70;84.00;;;;;;5003019;28;20025;-77
2021/03/13 07:57:37;;;;;;;3.17;0.70;;;7.80;83.80;;;;;;5008715;28;20041;-77
2021/03/13 08:00:04;;;;;;;4.70;1.33;;;7.80;83.00;;;;;;5011219;28;20053;-76
2021/03/13 08:02:29;;;;;;;5.20;1.37;;;7.90;82.90;;;;;;5018108;28;20030;-77
2021/03/13 08:04:59;;;;;;;3.37;1.20;;;8.00;82.40;;;;;;5011796;28;20041;-77
2021/03/13 08:07:48;;;;;;;5.90;1.77;;;8.00;82.40;;;;;;5008338;28;20030;-76
2021/03/13 08:10:49;;;;;;;6.13;1.83;;;8.10;82.60;;;;;;5011686;28;20037;-77
2021/03/13 08:13:26;;;;;;;5.47;2.53;;;8.10;82.50;;;;;;5026916;28;20041;-76
2021/03/13 08:16:05;;;;;;;8.20;3.30;;;8.20;82.40;;;;;;5014884;28;20363;-79
2021/03/13 08:18:42;;;;;;;6.20;3.40;;;8.30;82.40;;;;;;5032051;28;20021;-78
2021/03/13 08:21:17;;;;;;;6.87;2.27;;;8.40;82.10;;;;;;5030278;28;20060;-77
2021/03/13 08:23:50;;;;;;;5.43;2.10;;;8.40;81.10;;;;;;5015113;28;20026;-76
2021/03/13 08:26:18;;;;;;;7.47;2.03;;;8.50;81.00;;;;;;5032572;28;20025;-77
2021/03/13 08:28:47;;;;;;;7.93;1.97;;;8.60;80.40;;;;;;5030473;28;20116;-76
2021/03/13 08:31:22;;;;;;;7.67;2.17;;;8.70;79.70;;;;;;5032091;28;20045;-77
2021/03/13 08:33:55;;;;;;;8.47;1.80;;;8.70;79.50;;;;;;5016679;28;20037;-76
2021/03/13 08:36:23;;;;;;;8.63;2.47;;;8.80;79.20;;;;;;5015895;28;20045;-80
2021/03/13 08:39:00;;;;;;;11.83;2.77;;;8.80;78.50;;;;;;5013031;28;20045;-76
2021/03/13 08:41:44;;;;;;;10.27;2.00;;;8.90;78.80;;;;;;5013978;28;20034;-77
2021/03/13 08:44:26;;;;;;;10.37;3.47;;;8.90;78.50;;;;;;5031372;28;20037;-76
2021/03/13 08:47:00;;;;;;;12.90;3.30;;;9.00;78.10;;;;;;5032841;28;20022;-82
2021/03/13 08:49:28;;;;;;;14.97;6.77;;;9.00;77.50;;;;;;5031234;28;20025;-77
2021/03/13 08:52:06;;;;;;;8.90;3.93;;;9.10;77.80;;;;;;5009142;28;20091;-78
2021/03/13 08:54:41;;;;;;;13.53;4.90;;;9.20;78.00;;;;;;5011792;28;20140;-79
2021/03/13 08:57:14;;;;;;;9.83;3.60;;;9.20;77.60;;;;;;5028798;28;20038;-77
2021/03/13 08:59:44;;;;;;;9.20;2.83;;;9.20;77.50;;;;;;5033487;28;20025;-78
2021/03/13 09:02:13;;;;;;;14.40;4.00;;;9.20;77.20;;;;;;5031819;28;20061;-78
2021/03/13 09:04:41;;;;;;;9.97;3.37;;;9.20;77.30;;;;;;5014102;28;20386;-79
2021/03/13 09:07:08;;;;;;;10.57;3.33;;;9.10;76.90;;;;;;5015221;28;20116;-77
2021/03/13 09:09:36;;;;;;;17.40;5.37;;;9.10;76.50;;;;;;5034833;28;20615;-76
2021/03/13 09:12:08;;;;;;;13.93;4.13;;;9.00;77.00;;;;;;4999179;28;20054;-77
2021/03/13 09:14:35;;;;;;;11.82;4.30;;;9.00;77.60;;;;;;5033537;28;20025;-77
2021/03/13 09:17:21;;;;;;;9.97;2.13;;;9.00;77.60;;;;;;5014444;28;20391;-76
2021/03/13 09:19:48;;;;;;;10.63;2.47;;;9.20;76.60;;;;;;5014270;28;20044;-78
2021/03/13 09:22:18;;;;;;;9.93;3.80;;;9.40;77.40;;;;;;5014155;28;20026;-75
2021/03/13 09:24:50;;;;;;;9.30;2.80;;;9.70;77.40;;;;;;5014608;28;20461;-75
2021/03/13 09:27:15;;;;;;;11.60;2.67;;;10.10;75.40;;;;;;4998907;28;20036;-76
2021/03/13 09:29:42;;;;;;;10.90;2.40;;;10.20;74.30;;;;;;5032243;28;20030;-75
2021/03/13 09:32:10;;;;;;;9.33;2.37;;;10.20;73.60;;;;;;5029576;28;20052;-76
2021/03/13 09:34:47;;;;;;;10.83;3.47;;;10.20;73.90;;;;;;5028388;28;20029;-75
2021/03/13 09:37:24;;;;;;;15.07;2.90;;;10.20;73.50;;;;;;5005876;28;20482;-77
2021/03/13 09:39:52;;;;;;;11.33;2.40;;;10.10;74.00;;;;;;5014707;28;20112;-77
2021/03/13 09:42:23;;;;;;;15.10;5.60;;;10.10;73.80;;;;;;5030028;28;20026;-76
2021/03/13 09:45:04;;;;;;;12.47;4.47;;;10.10;74.20;;;;;;5006285;28;20031;-78
2021/03/13 09:47:33;;;;;;;10.33;2.57;;;10.10;73.00;;;;;;5022597;28;20430;-78
2021/03/13 09:50:03;;;;;;;13.27;2.43;;;10.00;72.70;;;;;;5004153;28;20021;-81
2021/03/13 09:52:32;;;;;;;9.97;1.97;;;9.90;72.40;;;;;;5013615;28;20037;-77
2021/03/13 09:54:59;;;;;;;19.17;4.13;;;9.90;71.90;;;;;;5031169;28;20035;-83
2021/03/13 09:57:25;;;;;;;15.87;2.37;;;9.90;72.10;;;;;;5027426;28;20120;-77
2021/03/13 09:59:51;;;;;;;14.13;2.77;;;9.90;71.30;;;;;;5033784;28;20106;-77
2021/03/13 10:02:17;;;;;;;16.47;2.50;;;10.00;72.50;;;;;;5030725;28;20065;-78
2021/03/13 10:04:43;;;;;;;11.83;1.93;;;10.20;69.80;;;;;;5030016;28;20124;-80
2021/03/13 10:07:09;;;;;;;15.63;2.73;;;10.30;69.20;;;;;;5015672;28;20112;-77
2021/03/13 10:09:53;;;;;;;11.70;2.20;;;10.20;69.20;;;;;;5031498;28;20057;-79
2021/03/13 10:12:30;;;;;;;12.97;1.50;;;10.10;69.80;;;;;;5012910;28;20115;-77
2021/03/13 10:15:09;;;;;;;14.33;3.30;;;10.10;68.50;;;;;;5014107;28;20029;-77
2021/03/13 10:18:01;;;;;;;13.70;3.07;;;10.10;69.20;;;;;;5013331;28;20477;-77
2021/03/13 10:20:35;;;;;;;22.63;4.27;;;10.10;67.80;;;;;;5013130;28;20025;-77
2021/03/13 10:23:05;;;;;;;16.53;3.53;;;10.10;69.30;;;;;;5031728;28;20052;-84
2021/03/13 10:25:31;;;;;;;15.73;3.00;;;10.10;70.10;;;;;;5031948;28;20029;-77
2021/03/13 10:28:14;;;;;;;15.20;2.30;;;10.30;69.80;;;;;;5014944;28;20213;-78
2021/03/13 10:30:44;;;;;;;;;;;10.70;70.00;;;;;;5010886;28;20025;-77
2021/03/13 10:33:14;;;;;;;12.23;2.90;;;11.00;68.40;;;;;;5005478;28;20007;-77
2021/03/13 10:35:40;;;;;;;14.70;3.67;;;11.10;67.50;;;;;;5023637;28;20478;-76
2021/03/13 10:38:08;;;;;;;16.60;3.00;;;10.90;67.60;;;;;;5021124;28;20076;-76
2021/03/13 10:40:46;;;;;;;12.50;3.43;;;10.80;68.90;;;;;;5020814;28;20125;-78
2021/03/13 10:43:35;;;;;;;9.87;2.03;;;10.80;69.50;;;;;;5025741;28;20037;-79
2021/03/13 10:46:01;;;;;;;15.60;3.77;;;10.80;69.00;;;;;;5031500;28;20060;-77
2021/03/13 10:48:35;;;;;;;17.27;2.63;;;11.00;70.40;;;;;;5030922;28;20057;-77
2021/03/13 10:51:02;;;;;;;16.97;3.33;;;11.00;70.00;;;;;;5022789;28;20030;-76
2021/03/13 10:53:34;;;;;;;15.63;3.07;;;11.60;69.10;;;;;;5028718;28;20073;-76
2021/03/13 10:55:59;;;;;;;17.15;3.10;;;12.00;66.80;;;;;;5030735;28;20084;-77
2021/03/13 10:58:27;;;;;;;13.60;3.83;;;12.30;65.80;;;;;;5037594;28;20033;-76
2021/03/13 11:00:56;;;;;;;18.50;3.70;;;12.60;65.70;;;;;;5031101;28;20061;-76
2021/03/13 11:03:22;;;;;;;14.43;2.17;;;12.80;62.40;;;;;;5015291;28;20038;-77
2021/03/13 11:05:51;;;;;;;16.20;4.23;;;13.00;62.10;;;;;;5024400;28;20052;-77
2021/03/13 11:08:20;;;;;;;10.63;2.60;;;13.30;62.00;;;;;;5020470;28;20064;-76
2021/03/13 11:10:47;;;;;;;10.80;3.33;;;13.40;61.90;;;;;;5026022;28;20519;-78
2021/03/13 11:13:13;;;;;;;11.43;3.33;;;13.50;60.50;;;;;;5019926;28;20061;-76
2021/03/13 11:15:38;;;;;;;15.47;3.67;;;13.50;59.80;;;;;;5003922;28;20025;-77
2021/03/13 11:18:05;;;;;;;11.53;3.03;;;13.30;61.20;;;;;;5023132;28;20034;-77
2021/03/13 11:20:31;;;;;;;15.40;5.00;;;13.10;60.90;;;;;;5024139;28;20462;-77
2021/03/13 11:22:57;;;;;;;11.17;1.43;;;13.10;61.30;;;;;;4987228;28;20037;-78
2021/03/13 11:25:23;;;;;;;16.40;4.80;;;13.30;57.50;;;;;;5030111;28;20034;-76
2021/03/13 11:27:49;;;;;;;15.43;3.10;;;13.40;61.10;;;;;;5033387;28;20083;-78
2021/03/13 11:30:16;;;;;;;15.07;2.37;;;13.30;59.80;;;;;;5000714;28;20073;-79
2021/03/13 11:32:41;;;;;;;16.67;3.63;;;13.50;57.60;;;;;;5027050;28;20033;-77
2021/03/13 11:35:08;;;;;;;12.80;2.60;;;13.40;58.10;;;;;;5034600;28;20480;-80
2021/03/13 11:37:35;;;;;;;12.30;3.20;;;13.00;56.60;;;;;;4997578;28;20454;-77
2021/03/13 11:40:02;;;;;;;10.67;2.33;;;13.10;60.20;;;;;;5028732;28;20442;-77
2021/03/13 11:42:30;;;;;;;15.47;2.93;;;13.00;60.00;;;;;;5033798;28;20199;-77
2021/03/13 11:44:59;;;;;;;14.43;4.03;;;13.00;60.50;;;;;;5017452;28;20025;-78
2021/03/13 11:47:26;;;;;;;18.40;4.63;;;13.50;60.40;;;;;;5032206;28;21223;-79
2021/03/13 11:49:52;;;;;;;11.77;2.20;;;13.80;58.90;;;;;;5016977;28;20441;-79
2021/03/13 11:52:18;;;;;;;9.27;1.93;;;13.70;57.10;;;;;;5030654;28;20033;-78
2021/03/13 11:54:49;;;;;;;11.93;1.77;;;13.50;57.60;;;;;;5034651;28;20060;-77
2021/03/13 11:57:16;;;;;;;9.33;1.70;;;13.10;57.20;;;;;;5016120;28;20032;-77
2021/03/13 11:59:44;;;;;;;9.57;2.00;;;12.60;58.80;;;;;;4984135;28;20021;-79
2021/03/13 12:02:10;;;;;;;12.83;1.70;;;12.30;60.70;;;;;;5016362;28;20037;-84
2021/03/13 12:04:36;;;;;;;11.07;3.23;;;12.10;60.70;;;;;;5017170;28;20029;-78
2021/03/13 12:07:02;;;;;;;6.80;1.40;;;12.00;62.70;;;;;;5015845;28;20477;-78
2021/03/13 12:09:27;;;;;;;9.20;1.10;;;12.20;62.30;;;;;;4996184;28;20029;-80
2021/03/13 12:11:53;;;;;;;6.57;1.00;;;12.20;63.00;;;;;;5028998;28;20041;-79
2021/03/13 12:14:18;;;;;;;7.93;0.90;;;12.10;62.60;;;;;;5032892;28;20381;-79
2021/03/13 12:16:45;;;;;;;6.90;1.27;;;11.90;63.00;;;;;;5034989;28;20036;-79
2021/03/13 12:19:12;;;;;;;11.93;1.33;;;11.80;63.30;;;;;;5000721;28;20225;-84
2021/03/13 12:21:39;;;;;;;8.70;1.70;;;11.60;64.80;;;;;;5016290;28;20017;-79
2021/03/13 12:24:06;;;;;;;9.67;1.93;;;11.10;67.90;;;;;;5034643;28;20033;-78
2021/03/13 12:26:32;;;;;;;14.50;1.50;;;10.80;69.80;;;;;;5015910;28;20075;-78
2021/03/13 12:28:58;;;;;;;11.20;1.80;;;10.40;70.40;;;;;;5016415;28;20029;-80
2021/03/13 12:31:24;;;;;;;11.87;2.33;;;10.30;72.00;;;;;;5015157;28;20068;-78
2021/03/13 12:33:49;;;;;;;13.87;2.97;;;10.30;72.60;;;;;;5034143;28;20048;-78
2021/03/13 12:36:15;;;;;;;15.33;2.10;;;10.30;72.80;;;;;;5016226;28;20484;-78
2021/03/13 12:38:41;;;;;;;18.40;2.23;;;10.30;72.20;;;;;;5033756;28;20022;-77
2021/03/13 12:41:07;;;;;;;17.77;3.27;;;10.30;72.50;;;;;;5030778;28;20394;-77
2021/03/13 12:43:34;;;;;;;14.57;2.20;;;10.20;72.80;;;;;;5029169;28;20021;-77
2021/03/13 12:46:00;;;;;;;17.67;3.57;;;10.20;72.80;;;;;;4999156;28;20025;-77
2021/03/13 12:48:26;;;;;;;16.93;3.13;;;10.10;73.30;;;;;;5033189;28;20021;-76
2021/03/13 12:50:53;;;;;;;12.80;1.97;;;10.00;74.10;;;;;;5031527;28;20021;-76
2021/03/13 12:53:19;;;;;;;10.87;2.20;;;9.70;74.00;;;;;;5032859;28;20091;-77
2021/03/13 12:55:45;;;;;;;6.77;1.23;;;9.30;74.10;;;;;;5033088;28;20022;-76
2021/03/13 12:58:11;;;;;;;17.50;4.27;;;8.80;74.20;;;;;;5033135;28;20022;-75
2021/03/13 13:00:39;;;;;;;12.83;2.73;;;8.50;74.90;;;;;;5011162;28;20038;-75